Startpagina
METAR-TAF:

METAR-TAF

Vliegvelden :

Nouakchott, Mauretanië

Internationale luchthaven van Nouakchott

breedte: 18-18-36N, lengte: 015-58-11W, hoogte: 3 m

Actueel weer

Dit bericht is 39 minuten geleden gemaakt, om 16:00 UTC
Wind 21 kt uit het noordwesten
Temperatuur 30°C
Vochtigheid 38%
Druk 1010 hPa
Zicht: 8000 m

METAR: GQNO 271600Z 32021KT 8000 NSC 30/14 Q1010 NOSIG

Tijdstip: 16:39 (16:39 UTC)

Verwachting

Dit bericht is 2 uur en het 39 minuten geleden gemaakt, om 14:00 UTC
Verwachting geldig van 27 om 14 UTC tot 28 om 18 UTC
Wind 14 kt uit het noordoosten
Zicht: 8000 m
Wijzigt naar
van 27 om 14 UTC tot 27 om 16 UTC
Wind 14 kt uit het noordnoordwesten

TAF: GQNO 271400Z 2714/2818 04014KT 8000 NSC BECMG 2714/2716 34014KT

Waarnemingen en weersverwachtingen van meer dan 4000 vliegvelden (METAR en TAF).

De beschikbare stations zijn de gele en rode punten op de kaart.

Ga met uw muis naar het station om de naam te zien.

Klik dan om waarnemingen en weersverwachtingen te zien.

kaart wijzigen: klik op de groene knoppen met een zwart kruis om in te zoomen, op de groene knop met een streepje om uit te zoomen of op de groene pijlen voor aangrenzende kaarten.


METAR-TAF: